Terminal Aerodrome Forecast
Issued by NWS

Home | Current Version | Previous Version | Text Only | Print | Product List | Glossary On
Versions: 1 2 3 4 5 6 7 8 9 10 11 12 13 14 15 16 17 18 19 20 21 22 23
000
FTUS43 KAPX 290900 AAA
TAFMBL
TAF AMD
KMBL 290925Z 2909/3006 10004KT P6SM -RA BKN040 OVC090
     FM291500 18008KT P6SM VCSH OVC040
     FM292200 16006KT P6SM BKN100
      AMD LTD TO CLD VIS AND WIND=

USA.gov is the U.S. government's official web portal to all federal, state and local government web resources and services.